Charlton — S6HE4 — position and weather

sailwx.info

Track history (hours):
 
Tides and Currents Weather Stations Pressure Air Temp Water Temp Dewpoint Dewpoint Depression Visibility Wind Speed Wind Dir Waves Ship Positions

Charlton

Last reported at 2017-Dec-04 10:09 UTC. Time now 2017-Dec-12 04:49 UTC.
Position N 22°35' E 120°18'.

Length 120 m; draft 6.2 m.

Type: Ship (hazmat cat A). MMSI: 565321000.

Date/timePositionNaut miles runAvg speedWind from/ knotsBaromVisibWave heightAir tempDewpointWater temp
2017-Dec-04 10:09N 22°35' E 120°18'0 0.0
2017-Dec-04 10:00N 22°35' E 120°18'0 0.0
2017-Dec-04 09:30N 22°35' E 120°18'0 0.0
2017-Dec-04 09:00N 22°35' E 120°18'0 0.0
2017-Dec-04 08:24N 22°35' E 120°18'0 0.0
2017-Dec-04 07:54N 22°35' E 120°18'0 0.0
2017-Dec-04 07:27N 22°35' E 120°18'0 0.0
2017-Dec-04 06:54N 22°35' E 120°18'0 0.0
2017-Dec-04 06:30N 22°35' E 120°18'0 0.0
2017-Dec-04 05:57N 22°35' E 120°18'0 0.0
2017-Dec-04 05:30N 22°35' E 120°18'0 0.0
2017-Dec-04 05:00N 22°35' E 120°18'0 0.0
2017-Dec-04 04:30N 22°35' E 120°18'0 0.0
2017-Dec-04 03:51N 22°35' E 120°18'0 0.0
2017-Dec-04 03:30N 22°35' E 120°18'0 0.0
2017-Dec-04 03:00N 22°35' E 120°18'0 0.0
2017-Dec-04 02:30N 22°35' E 120°18'0 0.0
2017-Dec-04 02:00N 22°35' E 120°18'0 0.0
2017-Dec-04 01:30N 22°35' E 120°18'0 0.0
2017-Dec-04 01:00N 22°35' E 120°18'0 0.0
2017-Dec-04 00:30N 22°35' E 120°18'0 0.0
2017-Dec-04 00:00N 22°35' E 120°18'0 0.0
2017-Dec-03 23:27N 22°35' E 120°18'0 0.0
2017-Dec-03 22:57N 22°35' E 120°18'0 0.0
2017-Dec-03 22:30N 22°35' E 120°18'0 0.0
2017-Dec-03 22:00N 22°35' E 120°18'0 0.0
2017-Dec-03 21:30N 22°35' E 120°18'0 0.0
2017-Dec-03 20:54N 22°35' E 120°18'0 0.0
2017-Dec-03 20:30N 22°35' E 120°18'0 0.0
2017-Dec-03 20:00N 22°35' E 120°18'0 0.0
2017-Dec-03 19:30N 22°35' E 120°18'0 0.0
2017-Dec-03 19:00N 22°35' E 120°18'0 0.0
2017-Dec-03 18:30N 22°35' E 120°18'0 0.0
2017-Dec-03 18:00N 22°35' E 120°18'0 0.0
2017-Dec-03 17:30N 22°35' E 120°18'0 0.0
2017-Dec-03 17:00N 22°35' E 120°18'0 0.0
2017-Dec-03 16:30N 22°35' E 120°18'0 0.0
2017-Dec-03 16:00N 22°35' E 120°18'0 0.0
2017-Dec-03 15:30N 22°35' E 120°18'0 0.0
2017-Dec-03 15:00N 22°35' E 120°18'0 0.0
2017-Dec-03 14:30N 22°35' E 120°18'0 0.0
2017-Dec-03 14:00N 22°35' E 120°18'0 0.0
2017-Dec-03 13:30N 22°35' E 120°18'0 0.0
2017-Dec-03 13:01N 22°35' E 120°18'0 0.0
2017-Dec-03 12:31N 22°35' E 120°18'0 0.0
2017-Dec-03 12:00N 22°35' E 120°18'3 5.4
2017-Dec-03 11:30N 22°37' E 120°16'4 8.6
2017-Dec-03 11:00N 22°37' E 120°11'510.0
2017-Dec-03 10:30N 22°36' E 120°06'1 1.9
2017-Dec-03 10:00N 22°36' E 120°07'1 1.6
2017-Dec-03 09:30N 22°35' E 120°06'2 4.6
2017-Dec-03 09:00N 22°34' E 120°04'2 4.9
2017-Dec-03 08:30N 22°32' E 120°03'612.3
2017-Dec-03 08:00N 22°26' E 120°00'  
Track history (hours):
 
Tides and Currents Weather Stations Pressure Air Temp Water Temp Dewpoint Dewpoint Depression Visibility Wind Speed Wind Dir Waves Ship Positions

Charlton

Last reported at 2017-Dec-04 10:09 UTC. Time now 2017-Dec-12 04:49 UTC.
Position N 22°35' E 120°18'.

Length 120 m; draft 6.2 m.

Type: Ship (hazmat cat A). MMSI: 565321000.

Date/timePositionNaut miles runAvg speedWind from/ knotsBaromVisibWave heightAir tempDewpointWater temp
2017-Dec-04 10:09N 22°35' E 120°18'0 0.0
2017-Dec-04 10:00N 22°35' E 120°18'0 0.0
2017-Dec-04 09:30N 22°35' E 120°18'0 0.0
2017-Dec-04 09:00N 22°35' E 120°18'0 0.0
2017-Dec-04 08:24N 22°35' E 120°18'0 0.0
2017-Dec-04 07:54N 22°35' E 120°18'0 0.0
2017-Dec-04 07:27N 22°35' E 120°18'0 0.0
2017-Dec-04 06:54N 22°35' E 120°18'0 0.0
2017-Dec-04 06:30N 22°35' E 120°18'0 0.0
2017-Dec-04 05:57N 22°35' E 120°18'0 0.0
2017-Dec-04 05:30N 22°35' E 120°18'0 0.0
2017-Dec-04 05:00N 22°35' E 120°18'0 0.0
2017-Dec-04 04:30N 22°35' E 120°18'0 0.0
2017-Dec-04 03:51N 22°35' E 120°18'0 0.0
2017-Dec-04 03:30N 22°35' E 120°18'0 0.0
2017-Dec-04 03:00N 22°35' E 120°18'0 0.0
2017-Dec-04 02:30N 22°35' E 120°18'0 0.0
2017-Dec-04 02:00N 22°35' E 120°18'0 0.0
2017-Dec-04 01:30N 22°35' E 120°18'0 0.0
2017-Dec-04 01:00N 22°35' E 120°18'0 0.0
2017-Dec-04 00:30N 22°35' E 120°18'0 0.0
2017-Dec-04 00:00N 22°35' E 120°18'0 0.0
2017-Dec-03 23:27N 22°35' E 120°18'0 0.0
2017-Dec-03 22:57N 22°35' E 120°18'0 0.0
2017-Dec-03 22:30N 22°35' E 120°18'0 0.0
2017-Dec-03 22:00N 22°35' E 120°18'0 0.0
2017-Dec-03 21:30N 22°35' E 120°18'0 0.0
2017-Dec-03 20:54N 22°35' E 120°18'0 0.0
2017-Dec-03 20:30N 22°35' E 120°18'0 0.0
2017-Dec-03 20:00N 22°35' E 120°18'0 0.0
2017-Dec-03 19:30N 22°35' E 120°18'0 0.0
2017-Dec-03 19:00N 22°35' E 120°18'0 0.0
2017-Dec-03 18:30N 22°35' E 120°18'0 0.0
2017-Dec-03 18:00N 22°35' E 120°18'0 0.0
2017-Dec-03 17:30N 22°35' E 120°18'0 0.0
2017-Dec-03 17:00N 22°35' E 120°18'0 0.0
2017-Dec-03 16:30N 22°35' E 120°18'0 0.0
2017-Dec-03 16:00N 22°35' E 120°18'0 0.0
2017-Dec-03 15:30N 22°35' E 120°18'0 0.0
2017-Dec-03 15:00N 22°35' E 120°18'0 0.0
2017-Dec-03 14:30N 22°35' E 120°18'0 0.0
2017-Dec-03 14:00N 22°35' E 120°18'0 0.0
2017-Dec-03 13:30N 22°35' E 120°18'0 0.0
2017-Dec-03 13:01N 22°35' E 120°18'0 0.0
2017-Dec-03 12:31N 22°35' E 120°18'0 0.0
2017-Dec-03 12:00N 22°35' E 120°18'3 5.4
2017-Dec-03 11:30N 22°37' E 120°16'4 8.6
2017-Dec-03 11:00N 22°37' E 120°11'510.0
2017-Dec-03 10:30N 22°36' E 120°06'1 1.9
2017-Dec-03 10:00N 22°36' E 120°07'1 1.6
2017-Dec-03 09:30N 22°35' E 120°06'2 4.6
2017-Dec-03 09:00N 22°34' E 120°04'2 4.9
2017-Dec-03 08:30N 22°32' E 120°03'612.3
2017-Dec-03 08:00N 22°26' E 120°00'  

Dump ship's entire track history